Time;durP1;ratioP1;P1;durP2;ratioP2;P2;SDS_P1;SDS_P2;PMS_P1;PMS_P2;Temp;Humidity;BMP_temperature;BMP_pressure;BME280_temperature;BME280_humidity;BME280_pressure;Samples;Min_cycle;Max_cycle;Signal;HPM_P1;HPM_P2
2023/10/03 00:00:24;;;;;;;11.60;5.85;;;18.60;99.90;;;;;;5059437;28;20817;-67
2023/10/03 00:02:57;;;;;;;12.07;5.88;;;18.60;99.90;;;;;;5058866;28;20412;-67
2023/10/03 00:05:28;;;;;;;10.18;5.25;;;18.60;99.90;;;;;;5059595;28;20040;-68
2023/10/03 00:07:55;;;;;;;12.15;5.57;;;18.60;99.90;;;;;;5053999;28;20197;-68
2023/10/03 00:10:21;;;;;;;9.55;5.18;;;18.60;99.90;;;;;;5066606;28;20130;-68
2023/10/03 00:12:48;;;;;;;11.60;4.93;;;18.50;99.90;;;;;;5066454;28;20392;-67
2023/10/03 00:15:16;;;;;;;10.93;5.30;;;18.40;99.90;;;;;;5057989;28;20404;-67
2023/10/03 00:17:42;;;;;;;11.63;5.53;;;18.40;99.90;;;;;;5065046;28;20518;-68
2023/10/03 00:20:11;;;;;;;10.60;5.53;;;18.40;99.90;;;;;;5065749;28;20021;-67
2023/10/03 00:22:38;;;;;;;13.38;6.35;;;18.30;99.90;;;;;;5065050;28;20044;-68
2023/10/03 00:25:07;;;;;;;10.93;5.80;;;18.30;99.90;;;;;;5063012;28;20081;-67
2023/10/03 00:27:35;;;;;;;11.60;5.53;;;18.30;99.90;;;;;;5066392;28;20108;-68
2023/10/03 00:30:03;;;;;;;11.40;5.60;;;18.20;99.90;;;;;;5064026;28;20119;-68
2023/10/03 00:32:30;;;;;;;11.27;5.68;;;18.20;99.90;;;;;;5064639;28;20035;-68
2023/10/03 00:34:56;;;;;;;11.25;5.18;;;18.10;99.90;;;;;;5066117;28;20032;-68
2023/10/03 00:37:23;;;;;;;12.70;6.63;;;18.10;99.90;;;;;;5062558;28;20527;-67
2023/10/03 00:39:49;;;;;;;11.85;5.80;;;18.10;99.90;;;;;;5060152;28;20044;-68
2023/10/03 00:42:15;;;;;;;12.93;5.63;;;18.00;99.90;;;;;;5060891;28;20039;-67
2023/10/03 00:44:41;;;;;;;11.00;5.50;;;18.00;99.90;;;;;;5065844;28;20043;-67
2023/10/03 00:47:07;;;;;;;11.25;5.50;;;18.00;99.90;;;;;;5065104;28;20033;-68
2023/10/03 00:49:35;;;;;;;11.23;5.60;;;17.90;99.90;;;;;;5060460;28;20558;-67
2023/10/03 00:52:05;;;;;;;12.40;5.72;;;17.90;99.90;;;;;;5061473;28;20028;-68
2023/10/03 00:54:32;;;;;;;11.90;5.43;;;17.90;99.90;;;;;;5061248;28;20040;-68
2023/10/03 00:56:58;;;;;;;11.35;4.72;;;17.90;99.90;;;;;;5064419;28;20036;-68
2023/10/03 00:59:25;;;;;;;15.25;5.50;;;17.80;99.90;;;;;;5064419;28;20027;-67
2023/10/03 01:01:55;;;;;;;11.63;5.35;;;17.80;99.90;;;;;;5059568;28;20131;-68
2023/10/03 01:04:28;;;;;;;13.07;5.30;;;17.80;99.90;;;;;;5061894;28;20460;-67
2023/10/03 01:06:55;;;;;;;11.98;4.90;;;17.80;99.90;;;;;;5060389;28;20495;-67
2023/10/03 01:09:25;;;;;;;9.52;5.25;;;17.80;99.90;;;;;;5058463;28;20032;-67
2023/10/03 01:11:53;;;;;;;10.07;4.50;;;17.80;99.90;;;;;;5064137;28;20048;-68
2023/10/03 01:14:19;;;;;;;10.70;5.43;;;17.80;99.90;;;;;;5061972;28;20024;-67
2023/10/03 01:16:46;;;;;;;12.13;5.18;;;17.80;99.90;;;;;;5059991;28;20455;-68
2023/10/03 01:19:19;;;;;;;9.23;4.93;;;17.70;99.90;;;;;;5062318;28;20036;-67
2023/10/03 01:21:46;;;;;;;9.77;5.20;;;17.80;99.90;;;;;;5065121;28;20776;-67
2023/10/03 01:24:20;;;;;;;11.68;5.22;;;17.80;99.90;;;;;;5060522;28;20064;-67
2023/10/03 01:26:47;;;;;;;13.25;5.30;;;17.70;99.90;;;;;;5060556;28;20114;-68
2023/10/03 01:29:13;;;;;;;10.95;5.10;;;17.70;99.90;;;;;;5065672;28;20036;-67
2023/10/03 01:31:41;;;;;;;11.90;4.88;;;17.80;99.90;;;;;;5062773;28;20056;-68
2023/10/03 01:34:07;;;;;;;11.27;4.60;;;17.80;99.90;;;;;;5061257;28;20090;-68
2023/10/03 01:36:34;;;;;;;13.82;5.13;;;17.70;99.90;;;;;;5060649;28;20029;-67
2023/10/03 01:38:59;;;;;;;11.85;5.47;;;17.70;99.90;;;;;;5062991;28;20036;-67
2023/10/03 01:41:26;;;;;;;10.23;4.60;;;17.70;99.90;;;;;;5063270;28;20047;-68
2023/10/03 01:43:52;;;;;;;16.23;5.65;;;17.70;99.90;;;;;;5063107;28;20047;-67
2023/10/03 01:46:18;;;;;;;11.13;5.20;;;17.60;99.90;;;;;;5063999;28;20475;-68
2023/10/03 01:48:44;;;;;;;11.32;4.85;;;17.60;99.90;;;;;;5062164;28;20036;-68
2023/10/03 01:51:10;;;;;;;8.63;4.88;;;17.60;99.90;;;;;;5062765;28;20029;-67
2023/10/03 01:53:38;;;;;;;10.10;5.45;;;17.60;99.90;;;;;;5059366;28;20507;-68
2023/10/03 01:56:05;;;;;;;10.68;5.10;;;17.50;99.90;;;;;;5059669;28;20086;-67
2023/10/03 01:58:34;;;;;;;11.30;5.35;;;17.50;99.90;;;;;;5063021;28;20059;-67
2023/10/03 02:01:00;;;;;;;8.88;4.30;;;17.50;99.90;;;;;;5062764;28;20038;-68
2023/10/03 02:03:28;;;;;;;11.93;4.97;;;17.50;99.90;;;;;;5064597;28;20032;-68
2023/10/03 02:05:55;;;;;;;13.05;5.45;;;17.40;99.90;;;;;;5063569;28;20033;-68
2023/10/03 02:08:23;;;;;;;9.20;4.90;;;17.40;99.90;;;;;;5063505;28;20037;-67
2023/10/03 02:10:50;;;;;;;9.63;4.63;;;17.30;99.90;;;;;;5053137;28;20033;-67
2023/10/03 02:13:17;;;;;;;10.65;5.18;;;17.30;99.90;;;;;;5063057;28;20020;-68
2023/10/03 02:15:44;;;;;;;10.35;4.70;;;17.20;99.90;;;;;;5057114;28;20428;-67
2023/10/03 02:18:14;;;;;;;14.07;5.05;;;17.20;99.90;;;;;;5062745;28;20028;-67
2023/10/03 02:20:50;;;;;;;10.48;4.10;;;17.20;99.90;;;;;;5062735;28;20044;-68
2023/10/03 02:23:24;;;;;;;12.10;4.88;;;17.20;99.90;;;;;;5056689;28;20032;-68
2023/10/03 02:25:52;;;;;;;11.25;5.03;;;17.10;99.90;;;;;;5060808;28;20028;-67
2023/10/03 02:28:18;;;;;;;13.07;5.25;;;17.10;99.90;;;;;;5062870;28;20036;-69
2023/10/03 02:30:45;;;;;;;13.30;5.30;;;17.10;99.90;;;;;;5062485;28;20024;-67
2023/10/03 02:33:14;;;;;;;11.20;5.30;;;17.00;99.90;;;;;;5061950;28;20219;-68
2023/10/03 02:35:44;;;;;;;10.73;4.97;;;17.00;99.90;;;;;;5062850;28;20641;-67
2023/10/03 02:38:23;;;;;;;8.75;4.97;;;16.90;99.90;;;;;;5063922;28;20027;-67
2023/10/03 02:41:00;;;;;;;10.00;4.82;;;16.90;99.90;;;;;;5061587;28;20514;-67
2023/10/03 02:43:31;;;;;;;10.18;4.95;;;16.80;99.90;;;;;;5062572;28;20029;-67
2023/10/03 02:46:03;;;;;;;8.95;3.95;;;16.80;99.90;;;;;;5062387;28;20466;-67
2023/10/03 02:48:30;;;;;;;11.27;5.25;;;16.80;99.90;;;;;;5061161;28;20032;-68
2023/10/03 02:50:57;;;;;;;10.13;4.32;;;16.70;99.90;;;;;;5061884;28;20024;-67
2023/10/03 02:53:23;;;;;;;10.57;4.97;;;16.70;99.90;;;;;;5056521;28;20036;-67
2023/10/03 02:55:51;;;;;;;14.50;5.22;;;16.70;99.90;;;;;;5060547;28;20095;-67
2023/10/03 02:58:17;;;;;;;10.50;4.82;;;16.70;99.90;;;;;;5062163;28;20033;-67
2023/10/03 03:00:46;;;;;;;12.38;4.97;;;16.70;99.90;;;;;;5058643;28;20029;-67
2023/10/03 03:03:14;;;;;;;12.23;5.15;;;16.70;99.90;;;;;;5062142;28;20047;-68
2023/10/03 03:05:42;;;;;;;12.13;5.10;;;16.60;99.90;;;;;;5062342;28;20043;-68
2023/10/03 03:10:43;;;;;;;10.60;4.78;;;16.60;99.90;;;;;;5058671;28;20033;-67
2023/10/03 03:13:13;;;;;;;13.95;5.85;;;16.60;99.90;;;;;;5061355;28;20119;-67
2023/10/03 03:15:45;;;;;;;13.05;5.63;;;16.60;99.90;;;;;;5062106;28;20127;-68
2023/10/03 03:18:12;;;;;;;11.93;5.20;;;16.60;99.90;;;;;;5063534;28;20024;-68
2023/10/03 03:20:40;;;;;;;10.50;5.07;;;16.60;99.90;;;;;;5053129;28;20867;-68
2023/10/03 03:23:10;;;;;;;12.73;5.47;;;16.60;99.90;;;;;;5061687;28;20503;-68
2023/10/03 03:25:37;;;;;;;12.10;5.03;;;16.60;99.90;;;;;;5058784;28;20116;-67
2023/10/03 03:28:13;;;;;;;11.93;5.75;;;16.60;99.90;;;;;;5062256;28;20032;-68
2023/10/03 03:30:55;;;;;;;;;;;16.70;99.90;;;;;;5056777;28;20024;-68
2023/10/03 03:33:25;;;;;;;13.07;5.57;;;16.70;99.90;;;;;;5061945;28;19913;-67
2023/10/03 03:35:51;;;;;;;9.20;4.65;;;16.70;99.90;;;;;;5063505;28;20036;-68
2023/10/03 03:38:20;;;;;;;14.10;5.95;;;16.70;99.90;;;;;;5063123;28;20032;-68
2023/10/03 03:40:48;;;;;;;13.35;5.95;;;16.70;99.90;;;;;;5060145;28;20056;-67
2023/10/03 03:43:17;;;;;;;13.32;5.05;;;16.70;99.90;;;;;;5060517;28;20407;-68
2023/10/03 03:45:44;;;;;;;13.45;5.53;;;16.70;99.90;;;;;;5061184;28;20037;-68
2023/10/03 03:48:10;;;;;;;17.48;6.47;;;16.70;99.90;;;;;;5064664;28;20123;-68
2023/10/03 03:50:36;;;;;;;14.35;6.30;;;16.80;99.90;;;;;;5064571;28;20074;-67
2023/10/03 03:53:02;;;;;;;15.63;6.82;;;16.80;99.90;;;;;;5066792;28;20049;-67
2023/10/03 03:55:31;;;;;;;16.20;6.57;;;16.90;99.90;;;;;;5065268;28;20028;-67
2023/10/03 03:57:59;;;;;;;15.82;6.43;;;17.00;99.90;;;;;;5066372;28;20032;-68
2023/10/03 04:00:29;;;;;;;20.20;8.43;;;17.00;99.90;;;;;;5060566;28;20115;-67
2023/10/03 04:03:00;;;;;;;17.05;7.13;;;17.10;99.90;;;;;;5062291;28;20024;-68
2023/10/03 04:05:27;;;;;;;17.08;6.57;;;17.10;99.90;;;;;;5060654;28;20032;-68
2023/10/03 04:07:54;;;;;;;15.45;6.68;;;17.10;99.90;;;;;;5062761;28;20086;-68
2023/10/03 04:10:21;;;;;;;15.85;6.53;;;17.10;99.90;;;;;;5064741;28;20140;-68
2023/10/03 04:12:49;;;;;;;16.38;6.57;;;17.20;99.90;;;;;;5066473;28;20074;-67
2023/10/03 04:15:15;;;;;;;16.02;6.22;;;17.30;99.90;;;;;;5058959;28;20032;-68
2023/10/03 04:17:49;;;;;;;22.15;6.85;;;17.40;99.90;;;;;;5063250;28;20032;-67
2023/10/03 04:22:48;;;;;;;19.58;7.63;;;17.40;99.90;;;;;;5066884;28;20047;-68
2023/10/03 04:25:15;;;;;;;15.30;6.55;;;17.40;99.90;;;;;;5066438;28;20433;-67
2023/10/03 04:27:41;;;;;;;16.92;7.18;;;17.50;99.90;;;;;;5062445;28;20031;-67
2023/10/03 04:30:13;;;;;;;18.27;6.72;;;17.50;99.70;;;;;;5063938;28;20041;-68
2023/10/03 04:32:42;;;;;;;18.77;7.53;;;17.60;99.70;;;;;;5065940;28;20047;-68
2023/10/03 04:35:11;;;;;;;18.20;6.97;;;17.60;99.50;;;;;;5072941;28;20498;-67
2023/10/03 04:37:39;;;;;;;18.63;7.72;;;17.60;99.50;;;;;;5062434;28;20059;-67
2023/10/03 04:40:06;;;;;;;21.90;6.95;;;17.70;99.40;;;;;;5058873;28;20048;-67
2023/10/03 04:42:35;;;;;;;21.35;7.65;;;17.70;99.30;;;;;;5066346;28;20484;-68
2023/10/03 04:45:05;;;;;;;22.83;7.60;;;17.70;99.30;;;;;;5066163;28;20039;-67
2023/10/03 04:47:31;;;;;;;22.30;7.93;;;17.80;99.20;;;;;;5066580;28;20040;-68
2023/10/03 04:50:01;;;;;;;22.70;7.88;;;17.80;99.10;;;;;;5065417;28;20032;-67
2023/10/03 04:52:27;;;;;;;18.75;6.90;;;17.80;98.90;;;;;;5062904;28;20047;-67
2023/10/03 04:54:53;;;;;;;17.80;7.35;;;17.80;98.90;;;;;;5064217;28;20071;-67
2023/10/03 04:57:18;;;;;;;18.70;7.72;;;17.80;98.90;;;;;;5065968;28;20028;-68
2023/10/03 04:59:44;;;;;;;18.30;6.72;;;17.80;98.80;;;;;;5064404;28;20586;-68
2023/10/03 05:02:10;;;;;;;16.67;7.20;;;17.80;98.90;;;;;;5065030;28;20032;-67
2023/10/03 05:04:37;;;;;;;19.65;7.93;;;17.80;99.00;;;;;;5064073;28;20040;-68
2023/10/03 05:07:03;;;;;;;22.42;7.97;;;17.80;98.90;;;;;;5056279;28;20090;-68
2023/10/03 05:09:32;;;;;;;15.88;6.68;;;17.80;99.00;;;;;;5053988;28;20037;-69
2023/10/03 05:11:57;;;;;;;19.35;7.13;;;17.80;99.00;;;;;;5063553;28;20498;-69
2023/10/03 05:14:23;;;;;;;19.67;7.47;;;17.80;98.90;;;;;;5065062;28;20028;-69
2023/10/03 05:16:52;;;;;;;17.85;6.43;;;17.80;98.90;;;;;;5061992;28;20063;-68
2023/10/03 05:19:19;;;;;;;19.25;7.68;;;17.80;98.80;;;;;;5061610;28;20052;-68
2023/10/03 05:21:45;;;;;;;18.80;7.28;;;17.80;98.80;;;;;;5064234;28;20407;-69
2023/10/03 05:24:11;;;;;;;19.67;8.05;;;17.80;98.90;;;;;;5065528;28;20038;-68
2023/10/03 05:26:41;;;;;;;19.25;7.93;;;17.80;98.80;;;;;;5064281;28;20036;-69
2023/10/03 05:29:07;;;;;;;18.88;7.53;;;17.90;98.80;;;;;;5061428;28;20052;-67
2023/10/03 05:31:34;;;;;;;20.77;7.53;;;17.90;98.70;;;;;;5065708;28;20055;-69
2023/10/03 05:34:00;;;;;;;23.67;8.32;;;17.90;98.70;;;;;;5065832;28;20036;-68
2023/10/03 05:36:27;;;;;;;22.48;8.52;;;17.90;98.60;;;;;;5063581;28;20422;-69
2023/10/03 05:38:53;;;;;;;17.55;7.47;;;17.90;98.60;;;;;;5066371;28;20036;-68
2023/10/03 05:41:21;;;;;;;21.30;7.85;;;17.90;98.60;;;;;;5063206;28;20048;-68
2023/10/03 05:43:50;;;;;;;20.70;8.27;;;17.90;98.60;;;;;;5065233;28;20138;-68
2023/10/03 05:46:16;;;;;;;19.38;8.15;;;18.00;98.50;;;;;;5059183;28;20481;-68
2023/10/03 05:48:45;;;;;;;22.52;8.93;;;18.00;98.40;;;;;;5058534;28;20045;-67
2023/10/03 05:51:12;;;;;;;17.95;7.55;;;18.00;98.40;;;;;;5063616;28;20028;-68
2023/10/03 05:53:40;;;;;;;21.52;7.93;;;18.00;98.50;;;;;;5061623;28;20060;-69
2023/10/03 05:56:06;;;;;;;23.70;8.88;;;18.00;98.40;;;;;;5064716;28;20032;-69
2023/10/03 05:58:32;;;;;;;22.92;8.25;;;18.10;98.30;;;;;;5063267;28;20054;-67
2023/10/03 06:01:01;;;;;;;21.20;7.82;;;18.20;98.20;;;;;;5063997;28;20511;-68
2023/10/03 06:03:27;;;;;;;19.17;7.82;;;18.30;98.00;;;;;;5062364;28;20085;-67
2023/10/03 06:05:52;;;;;;;23.17;8.85;;;18.30;98.10;;;;;;5063340;28;20033;-69
2023/10/03 06:08:18;;;;;;;28.17;9.07;;;18.40;97.90;;;;;;5065030;28;20528;-68
2023/10/03 06:10:44;;;;;;;23.80;8.30;;;18.40;97.70;;;;;;5065489;28;20041;-68
2023/10/03 06:13:10;;;;;;;22.27;9.07;;;18.40;97.70;;;;;;5058396;28;20032;-68
2023/10/03 06:15:40;;;;;;;23.67;8.80;;;18.50;97.80;;;;;;5063149;28;20123;-69
2023/10/03 06:18:06;;;;;;;25.83;8.82;;;18.50;97.60;;;;;;5061193;28;20060;-69
2023/10/03 06:20:31;;;;;;;24.25;9.40;;;18.50;97.70;;;;;;5062531;28;20064;-69
2023/10/03 06:22:57;;;;;;;22.65;8.38;;;18.40;97.80;;;;;;5059439;28;20036;-69
2023/10/03 06:25:24;;;;;;;22.92;9.10;;;18.50;97.70;;;;;;5063713;28;20025;-68
2023/10/03 06:27:50;;;;;;;22.23;8.98;;;18.50;97.70;;;;;;5065143;28;20051;-69
2023/10/03 06:30:18;;;;;;;26.13;8.90;;;18.50;97.70;;;;;;5064964;28;20768;-68
2023/10/03 06:32:45;;;;;;;25.70;8.85;;;18.50;97.70;;;;;;5054726;28;20025;-69
2023/10/03 06:35:12;;;;;;;23.38;8.25;;;18.60;97.70;;;;;;5055615;28;20030;-68
2023/10/03 06:37:38;;;;;;;25.00;8.90;;;18.70;97.50;;;;;;5064834;28;20040;-69
2023/10/03 06:40:06;;;;;;;23.10;8.68;;;18.70;97.50;;;;;;5063938;28;20085;-69
2023/10/03 06:42:35;;;;;;;22.50;8.55;;;18.70;97.40;;;;;;5059961;28;20036;-68
2023/10/03 06:45:05;;;;;;;20.52;8.43;;;18.80;97.50;;;;;;5062937;28;20040;-69
2023/10/03 06:47:33;;;;;;;21.75;8.27;;;18.80;97.40;;;;;;5061571;28;20078;-69
2023/10/03 06:49:59;;;;;;;26.58;9.35;;;18.90;97.20;;;;;;5060897;28;20032;-69
2023/10/03 06:52:25;;;;;;;23.30;8.52;;;18.90;97.20;;;;;;5062881;28;20055;-70
2023/10/03 06:54:51;;;;;;;22.90;9.27;;;18.90;97.10;;;;;;5062961;28;20067;-69
2023/10/03 06:57:17;;;;;;;24.98;9.43;;;18.90;97.20;;;;;;5061743;28;20052;-69
2023/10/03 06:59:43;;;;;;;22.85;8.80;;;19.00;97.20;;;;;;5060151;28;20395;-68
2023/10/03 07:02:09;;;;;;;27.60;9.75;;;19.00;97.10;;;;;;5064530;28;20032;-69
2023/10/03 07:04:34;;;;;;;22.65;9.05;;;19.10;97.10;;;;;;5053994;28;20689;-69
2023/10/03 07:07:01;;;;;;;23.13;8.60;;;19.20;97.20;;;;;;5058095;28;20754;-68
2023/10/03 07:09:27;;;;;;;24.25;8.90;;;19.30;97.10;;;;;;5059026;28;20051;-69
2023/10/03 07:11:54;;;;;;;21.05;9.43;;;19.40;96.90;;;;;;5064325;28;20032;-69
2023/10/03 07:14:20;;;;;;;23.83;9.32;;;19.50;96.70;;;;;;5063835;28;20020;-68
2023/10/03 07:16:48;;;;;;;23.95;9.30;;;19.60;96.90;;;;;;5059094;28;20063;-69
2023/10/03 07:19:14;;;;;;;23.77;9.85;;;19.60;96.60;;;;;;5059308;28;20033;-69
2023/10/03 07:21:41;;;;;;;23.80;8.70;;;19.50;96.80;;;;;;5058074;28;20086;-68
2023/10/03 07:24:07;;;;;;;28.38;9.45;;;19.60;96.80;;;;;;5059758;28;20060;-69
2023/10/03 07:26:33;;;;;;;28.77;10.10;;;19.60;96.40;;;;;;5062458;28;20920;-69
2023/10/03 07:29:01;;;;;;;24.48;9.80;;;19.70;96.60;;;;;;5060590;28;20121;-69
2023/10/03 07:31:27;;;;;;;26.40;9.57;;;19.70;96.50;;;;;;5064166;28;20040;-68
2023/10/03 07:33:54;;;;;;;29.05;10.15;;;19.90;96.60;;;;;;5057787;28;20040;-69
2023/10/03 07:36:20;;;;;;;27.92;9.98;;;20.00;96.40;;;;;;5061985;28;20383;-68
2023/10/03 07:38:46;;;;;;;25.67;10.15;;;20.10;96.30;;;;;;5060877;28;20032;-68
2023/10/03 07:41:13;;;;;;;26.80;9.13;;;20.20;95.90;;;;;;5063288;28;20082;-68
2023/10/03 07:43:47;;;;;;;25.25;9.73;;;20.30;96.10;;;;;;5059159;28;20032;-68
2023/10/03 07:46:25;;;;;;;23.35;9.40;;;20.30;95.60;;;;;;5061300;28;20073;-69
2023/10/03 07:48:54;;;;;;;29.13;9.52;;;20.30;95.80;;;;;;5061610;28;20365;-69
2023/10/03 07:51:26;;;;;;;24.40;9.45;;;20.40;95.50;;;;;;5062575;28;20028;-65
2023/10/03 07:53:52;;;;;;;28.33;10.43;;;20.40;95.70;;;;;;5061756;28;20094;-69
2023/10/03 07:56:29;;;;;;;25.08;10.13;;;20.50;95.60;;;;;;5062226;28;20029;-68
2023/10/03 07:59:02;;;;;;;29.05;10.40;;;20.50;95.40;;;;;;5062697;28;20079;-68
2023/10/03 08:01:29;;;;;;;26.08;9.10;;;20.50;95.40;;;;;;5051390;28;20041;-67
2023/10/03 08:03:57;;;;;;;22.42;9.52;;;20.60;95.70;;;;;;5063572;28;20032;-69
2023/10/03 08:06:27;;;;;;;26.20;10.13;;;20.60;95.50;;;;;;5063664;28;20043;-68
2023/10/03 08:08:53;;;;;;;27.65;10.45;;;20.80;95.30;;;;;;5057941;28;20496;-69
2023/10/03 08:11:28;;;;;;;24.40;10.30;;;21.00;95.20;;;;;;5063700;28;20086;-69
2023/10/03 08:13:55;;;;;;;25.88;10.07;;;21.10;94.70;;;;;;5064000;28;20060;-68
2023/10/03 08:16:22;;;;;;;25.02;9.57;;;21.30;94.70;;;;;;5064090;28;20039;-68
2023/10/03 08:18:57;;;;;;;26.02;8.75;;;21.40;94.00;;;;;;5063976;28;20064;-69
2023/10/03 08:21:29;;;;;;;28.17;9.60;;;21.50;94.30;;;;;;5060567;28;20140;-68
2023/10/03 08:23:56;;;;;;;32.30;11.18;;;21.60;94.10;;;;;;5057042;28;20131;-68
2023/10/03 08:26:25;;;;;;;27.70;10.32;;;21.70;93.90;;;;;;5056455;28;20481;-69
2023/10/03 08:29:04;;;;;;;24.98;9.65;;;21.90;93.90;;;;;;5053802;28;20065;-69
2023/10/03 08:31:31;;;;;;;23.13;9.77;;;22.00;93.60;;;;;;5059127;28;20155;-69
2023/10/03 08:33:56;;;;;;;28.70;10.23;;;22.10;93.30;;;;;;5067200;28;20044;-67
2023/10/03 08:36:27;;;;;;;31.02;11.15;;;22.10;93.10;;;;;;5067158;28;20032;-69
2023/10/03 08:39:04;;;;;;;24.10;10.35;;;22.10;93.10;;;;;;5063940;28;20549;-69
2023/10/03 08:42:12;;;;;;;25.35;9.35;;;22.20;93.10;;;;;;5065530;28;20047;-68
2023/10/03 08:44:51;;;;;;;23.20;9.70;;;22.20;93.30;;;;;;5062019;28;20043;-68
2023/10/03 08:47:30;;;;;;;21.70;8.82;;;22.30;93.10;;;;;;5058930;28;20699;-68
2023/10/03 08:50:14;;;;;;;25.48;9.73;;;22.40;92.80;;;;;;5060135;28;20409;-69
2023/10/03 08:52:46;;;;;;;28.48;10.55;;;22.50;92.50;;;;;;5065302;28;20059;-69
2023/10/03 08:55:19;;;;;;;24.50;9.73;;;22.50;92.10;;;;;;5063362;28;20039;-68
2023/10/03 08:57:49;;;;;;;25.02;9.30;;;22.60;92.50;;;;;;5060920;28;20025;-69
2023/10/03 09:00:16;;;;;;;25.02;9.93;;;22.60;91.80;;;;;;5053988;28;20028;-68
2023/10/03 09:02:46;;;;;;;20.60;9.02;;;22.60;91.70;;;;;;5062090;28;20036;-68
2023/10/03 09:05:19;;;;;;;24.40;9.45;;;22.70;91.90;;;;;;5066906;28;20036;-68
2023/10/03 09:07:46;;;;;;;25.02;9.80;;;22.70;91.70;;;;;;5055893;28;20033;-69
2023/10/03 09:10:24;;;;;;;23.55;8.80;;;22.80;91.40;;;;;;5065879;28;20132;-73
2023/10/03 09:13:03;;;;;;;23.55;8.73;;;22.90;91.20;;;;;;5058004;28;20032;-68
2023/10/03 09:15:37;;;;;;;21.77;8.82;;;23.00;90.80;;;;;;5062878;28;20024;-69
2023/10/03 09:18:10;;;;;;;23.52;9.15;;;23.10;90.90;;;;;;5064362;28;20036;-70
2023/10/03 09:20:42;;;;;;;21.17;9.45;;;23.10;90.60;;;;;;5059238;28;20040;-70
2023/10/03 09:23:09;;;;;;;23.20;9.00;;;23.10;90.50;;;;;;5060674;28;20068;-70
2023/10/03 09:25:38;;;;;;;22.77;9.25;;;23.20;90.30;;;;;;5062469;28;20064;-69
2023/10/03 09:28:08;;;;;;;22.00;8.98;;;23.30;90.60;;;;;;5065046;28;20071;-69
2023/10/03 09:30:42;;;;;;;23.38;9.27;;;23.40;90.00;;;;;;5066149;28;20199;-69
2023/10/03 09:33:17;;;;;;;23.58;9.57;;;23.50;89.60;;;;;;5061295;28;20091;-69
2023/10/03 09:36:02;;;;;;;23.30;9.15;;;23.70;89.70;;;;;;5062321;28;20040;-69
2023/10/03 09:38:42;;;;;;;21.40;8.83;;;23.80;89.20;;;;;;5057788;28;20032;-70
2023/10/03 09:41:16;;;;;;;26.98;10.00;;;23.90;88.70;;;;;;5057128;28;20041;-69
2023/10/03 09:43:56;;;;;;;19.88;8.43;;;23.90;87.40;;;;;;5059333;28;20082;-69
2023/10/03 09:46:23;;;;;;;20.05;9.00;;;23.90;87.50;;;;;;5058177;28;20086;-70
2023/10/03 09:48:56;;;;;;;24.05;9.32;;;24.00;87.80;;;;;;5064387;28;20488;-69
2023/10/03 09:54:15;;;;;;;20.27;8.80;;;24.00;87.10;;;;;;5061155;28;20496;-70
2023/10/03 09:56:49;;;;;;;24.73;8.38;;;24.10;86.20;;;;;;5062099;28;20040;-69
2023/10/03 09:59:17;;;;;;;17.60;8.13;;;24.20;86.20;;;;;;5062503;28;20040;-69
2023/10/03 10:01:45;;;;;;;21.80;8.82;;;24.20;85.00;;;;;;5061388;28;20028;-68
2023/10/03 10:04:14;;;;;;;18.63;8.73;;;24.30;86.00;;;;;;5060205;28;20060;-69
2023/10/03 10:06:51;;;;;;;22.40;8.02;;;24.30;86.00;;;;;;5063986;28;20034;-69
2023/10/03 10:09:29;;;;;;;18.60;7.88;;;24.30;85.40;;;;;;5058575;28;20083;-70
2023/10/03 10:12:21;;;;;;;16.58;7.97;;;24.30;85.40;;;;;;5057148;28;20065;-69
2023/10/03 10:17:46;;;;;;;18.15;7.70;;;24.40;84.60;;;;;;5059147;28;20098;-69
2023/10/03 10:20:37;;;;;;;18.48;8.48;;;24.30;84.90;;;;;;5058652;28;20037;-68
2023/10/03 10:23:04;;;;;;;16.13;7.80;;;24.40;85.40;;;;;;5061845;28;20042;-69
2023/10/03 10:25:37;;;;;;;17.63;7.72;;;24.40;84.60;;;;;;5060519;28;20560;-69
2023/10/03 10:28:11;;;;;;;17.52;7.75;;;24.50;84.40;;;;;;5061039;28;20040;-69
2023/10/03 10:30:39;;;;;;;19.05;7.45;;;24.60;82.90;;;;;;5052633;28;20040;-68
2023/10/03 10:33:23;;;;;;;21.00;7.70;;;24.50;83.70;;;;;;5060784;28;20541;-69
2023/10/03 10:36:04;;;;;;;16.52;7.32;;;24.40;83.70;;;;;;5065438;28;20131;-67
2023/10/03 10:38:32;;;;;;;23.63;8.07;;;24.40;83.90;;;;;;5064834;28;20094;-68
2023/10/03 10:41:31;;;;;;;14.75;7.45;;;24.50;82.90;;;;;;5061722;28;20032;-69
2023/10/03 10:44:10;;;;;;;19.80;8.02;;;24.60;83.20;;;;;;5060037;28;20064;-67
2023/10/03 10:46:47;;;;;;;17.42;7.70;;;24.70;83.10;;;;;;5058996;28;20033;-69
2023/10/03 10:49:31;;;;;;;18.45;7.95;;;24.50;82.80;;;;;;5064351;28;20032;-70
2023/10/03 10:51:59;;;;;;;15.95;7.05;;;24.40;82.40;;;;;;5059804;28;20522;-69
2023/10/03 10:54:25;;;;;;;17.85;7.20;;;24.50;82.20;;;;;;5060441;28;20017;-69
2023/10/03 10:57:01;;;;;;;17.35;7.65;;;24.60;82.40;;;;;;5060450;28;20137;-69
2023/10/03 10:59:28;;;;;;;20.73;7.88;;;24.70;82.70;;;;;;5064455;28;20036;-69
2023/10/03 11:01:54;;;;;;;19.05;7.93;;;24.70;82.20;;;;;;5060677;28;20058;-69
2023/10/03 11:04:27;;;;;;;16.35;6.45;;;24.70;82.50;;;;;;5060340;28;20503;-69
2023/10/03 11:06:53;;;;;;;20.58;7.50;;;24.70;83.00;;;;;;5056157;28;20424;-68
2023/10/03 11:09:20;;;;;;;19.17;7.57;;;24.50;81.70;;;;;;5062954;28;20029;-69
2023/10/03 11:11:47;;;;;;;17.27;6.88;;;24.50;82.10;;;;;;5060763;28;20043;-69
2023/10/03 11:14:23;;;;;;;16.55;6.78;;;24.40;81.70;;;;;;5059585;28;20032;-69
2023/10/03 11:16:49;;;;;;;16.30;6.85;;;24.40;82.90;;;;;;5057968;28;20116;-70
2023/10/03 11:19:15;;;;;;;15.65;7.00;;;24.50;83.00;;;;;;5061018;28;20123;-69
2023/10/03 11:21:41;;;;;;;17.02;6.72;;;24.60;82.90;;;;;;5057736;28;20033;-69
2023/10/03 11:24:14;;;;;;;14.70;6.93;;;24.60;82.80;;;;;;5059987;28;20087;-69
2023/10/03 11:26:58;;;;;;;17.23;7.03;;;24.50;82.30;;;;;;5061519;28;20139;-69
2023/10/03 11:29:45;;;;;;;17.80;6.97;;;24.50;81.70;;;;;;5057217;28;20043;-70
2023/10/03 11:32:32;;;;;;;17.63;6.97;;;24.50;82.30;;;;;;5062887;28;20091;-70
2023/10/03 11:35:12;;;;;;;13.95;6.60;;;24.40;81.90;;;;;;5058918;28;20037;-70
2023/10/03 11:37:43;;;;;;;15.73;6.43;;;24.30;82.70;;;;;;5064698;28;20044;-70
2023/10/03 11:40:18;;;;;;;14.57;6.78;;;24.20;83.80;;;;;;5062673;28;20037;-70
2023/10/03 11:42:59;;;;;;;16.10;6.40;;;24.20;84.00;;;;;;5064180;28;20037;-70
2023/10/03 11:45:29;;;;;;;18.92;6.40;;;24.20;84.70;;;;;;5060215;28;20279;-68
2023/10/03 11:48:04;;;;;;;16.13;6.70;;;24.10;84.50;;;;;;5064375;28;20040;-68
2023/10/03 11:50:32;;;;;;;12.75;6.13;;;24.20;83.90;;;;;;5063924;28;20041;-69
2023/10/03 11:52:58;;;;;;;15.20;7.20;;;24.00;84.10;;;;;;5064232;28;20048;-68
2023/10/03 11:55:25;;;;;;;14.40;6.07;;;24.00;86.40;;;;;;5061742;28;20066;-68
2023/10/03 11:57:51;;;;;;;14.90;6.65;;;24.00;86.60;;;;;;5064297;28;20036;-69
2023/10/03 12:00:17;;;;;;;13.23;6.00;;;24.00;85.80;;;;;;5055979;28;20038;-69
2023/10/03 12:02:47;;;;;;;13.32;6.43;;;24.00;85.80;;;;;;5063352;28;20149;-69
2023/10/03 12:05:14;;;;;;;17.85;5.85;;;23.90;85.70;;;;;;5065082;28;20024;-69
2023/10/03 12:07:45;;;;;;;16.42;6.35;;;23.90;85.50;;;;;;5054625;28;20143;-70
2023/10/03 12:10:12;;;;;;;16.73;6.35;;;24.00;86.00;;;;;;5067530;28;20052;-69
2023/10/03 12:12:39;;;;;;;12.90;5.82;;;24.00;85.40;;;;;;5067267;28;20036;-69
2023/10/03 12:15:12;;;;;;;17.15;6.32;;;24.00;85.20;;;;;;5062797;28;20127;-69
2023/10/03 12:17:42;;;;;;;14.15;6.20;;;24.00;86.00;;;;;;5060660;28;20066;-69
2023/10/03 12:20:12;;;;;;;15.45;6.88;;;24.00;85.50;;;;;;5065129;28;20024;-69
2023/10/03 12:22:41;;;;;;;15.77;6.15;;;24.10;85.60;;;;;;5064385;28;20062;-69
2023/10/03 12:25:11;;;;;;;12.82;6.20;;;24.10;84.80;;;;;;5066043;28;20032;-69
2023/10/03 12:27:38;;;;;;;13.85;5.75;;;24.20;84.70;;;;;;5059984;28;20108;-67
2023/10/03 12:30:08;;;;;;;14.82;6.63;;;24.20;84.40;;;;;;5066396;28;20043;-69
2023/10/03 12:32:35;;;;;;;17.30;6.43;;;24.10;84.70;;;;;;5068016;28;20066;-69
2023/10/03 12:35:02;;;;;;;14.32;6.63;;;24.00;85.10;;;;;;5064734;28;20048;-69
2023/10/03 12:37:29;;;;;;;14.80;5.72;;;24.00;84.90;;;;;;5067562;28;20024;-70
2023/10/03 12:40:01;;;;;;;18.75;6.43;;;24.00;86.00;;;;;;5065938;28;20555;-69
2023/10/03 12:42:28;;;;;;;11.10;5.68;;;23.90;85.90;;;;;;5067494;28;20062;-69
2023/10/03 12:44:56;;;;;;;12.77;5.78;;;23.90;86.20;;;;;;5067582;28;20096;-69
2023/10/03 12:47:25;;;;;;;12.13;6.00;;;24.00;86.50;;;;;;5067697;28;20436;-69
2023/10/03 12:49:52;;;;;;;11.00;5.68;;;23.90;86.20;;;;;;5067257;28;20037;-69
2023/10/03 12:52:18;;;;;;;15.10;6.28;;;23.80;86.70;;;;;;5061697;28;20078;-70
2023/10/03 12:54:45;;;;;;;12.40;5.50;;;23.60;87.40;;;;;;5063363;28;20028;-69
2023/10/03 12:57:11;;;;;;;12.45;5.70;;;23.50;88.00;;;;;;5066656;28;20039;-69
2023/10/03 12:59:37;;;;;;;16.35;5.72;;;23.60;88.20;;;;;;5063822;28;20044;-70